createdAt,value
2022-12-17T00:02:14.645Z,21.75
2022-12-17T00:05:00.348Z,21.65
2022-12-17T00:07:48.452Z,21.05
2022-12-17T00:10:35.655Z,21.63
2022-12-17T00:13:22.255Z,20.77
2022-12-17T00:16:10.436Z,19.70
2022-12-17T00:18:56.473Z,24.60
2022-12-17T00:21:41.748Z,24.23
2022-12-17T00:24:27.705Z,25.80
2022-12-17T00:27:19.999Z,31.55
2022-12-17T00:30:06.193Z,37.78
2022-12-17T00:32:51.530Z,43.67
2022-12-17T00:35:37.836Z,44.38
2022-12-17T00:38:23.608Z,41.97
2022-12-17T00:41:09.913Z,42.05
2022-12-17T00:43:57.380Z,43.58
2022-12-17T00:46:43.022Z,43.05
2022-12-17T00:49:28.298Z,42.42
2022-12-17T00:52:14.537Z,44.72
2022-12-17T00:55:00.205Z,44.70
2022-12-17T00:57:46.661Z,42.20
2022-12-17T01:00:45.429Z,45.67
2022-12-17T01:03:32.723Z,44.60
2022-12-17T01:06:20.562Z,45.72
2022-12-17T01:09:06.669Z,45.50
2022-12-17T01:11:52.295Z,46.42
2022-12-17T01:14:38.424Z,46.92
2022-12-17T01:17:25.709Z,45.58
2022-12-17T01:20:11.534Z,44.78
2022-12-17T01:22:57.265Z,45.17
2022-12-17T01:25:43.044Z,45.47
2022-12-17T01:28:29.579Z,45.17
2022-12-17T01:31:15.687Z,45.83
2022-12-17T01:34:02.703Z,43.83
2022-12-17T01:36:48.351Z,46.83
2022-12-17T01:39:34.118Z,46.30
2022-12-17T01:42:20.095Z,46.42
2022-12-17T01:45:08.764Z,47.03
2022-12-17T01:47:58.607Z,46.97
2022-12-17T01:50:48.429Z,46.60
2022-12-17T01:53:35.312Z,46.17
2022-12-17T01:56:22.250Z,46.63
2022-12-17T01:59:08.433Z,45.95
2022-12-17T02:01:54.886Z,44.47
2022-12-17T02:04:40.725Z,45.55
2022-12-17T02:07:50.272Z,45.05
2022-12-17T02:10:42.974Z,46.40
2022-12-17T02:13:35.224Z,44.15
2022-12-17T02:16:27.873Z,43.53
2022-12-17T02:19:18.893Z,45.17
2022-12-17T02:22:12.727Z,45.50
2022-12-17T02:25:22.752Z,44.90
2022-12-17T02:28:10.188Z,45.47
2022-12-17T02:31:05.676Z,44.72
2022-12-17T02:33:52.371Z,45.53
2022-12-17T02:36:38.232Z,44.33
2022-12-17T02:39:23.923Z,44.85
2022-12-17T02:42:14.832Z,43.88
2022-12-17T02:45:03.062Z,44.88
2022-12-17T02:47:49.087Z,44.83
2022-12-17T02:50:34.786Z,43.13
2022-12-17T02:53:22.100Z,43.08
2022-12-17T02:56:07.745Z,43.63
2022-12-17T02:58:53.852Z,43.80
2022-12-17T03:01:40.915Z,42.63
2022-12-17T03:04:26.791Z,41.05
2022-12-17T03:07:12.123Z,43.17
2022-12-17T03:09:57.702Z,42.30
2022-12-17T03:12:43.398Z,42.25
2022-12-17T03:15:29.254Z,42.67
2022-12-17T03:18:16.266Z,44.13
2022-12-17T03:21:02.163Z,44.53
2022-12-17T03:23:47.914Z,43.20
2022-12-17T03:26:33.691Z,42.42
2022-12-17T03:29:19.305Z,44.03
2022-12-17T03:32:05.104Z,44.47
2022-12-17T03:34:52.088Z,45.08
2022-12-17T03:37:38.049Z,43.92
2022-12-17T03:40:24.924Z,44.97
2022-12-17T03:43:11.261Z,43.17
2022-12-17T03:46:02.165Z,43.78
2022-12-17T03:48:48.146Z,44.85
2022-12-17T03:51:34.959Z,44.78
2022-12-17T03:54:21.469Z,40.83
2022-12-17T03:57:10.582Z,41.78
2022-12-17T03:59:59.113Z,40.42
2022-12-17T04:02:44.925Z,41.95
2022-12-17T04:05:36.077Z,41.67
2022-12-17T04:08:23.184Z,41.45
2022-12-17T04:11:09.017Z,43.20
2022-12-17T04:13:55.299Z,41.63
2022-12-17T04:16:41.187Z,42.45
2022-12-17T04:19:26.887Z,42.05
2022-12-17T04:22:12.566Z,41.65
2022-12-17T04:24:59.741Z,40.33
2022-12-17T04:27:45.610Z,42.35
2022-12-17T04:30:31.281Z,41.47
2022-12-17T04:33:16.876Z,41.22
2022-12-17T04:36:02.659Z,42.15
2022-12-17T04:38:44.967Z,41.55
2022-12-17T04:41:31.878Z,40.88
2022-12-17T04:44:17.407Z,42.28
2022-12-17T04:47:03.128Z,42.25
2022-12-17T04:49:49.075Z,43.35
2022-12-17T04:52:35.377Z,43.63
2022-12-17T04:55:20.468Z,43.15
2022-12-17T04:58:07.771Z,45.95
2022-12-17T05:00:53.540Z,45.50
2022-12-17T05:03:40.160Z,46.03
2022-12-17T05:06:27.583Z,45.40
2022-12-17T05:09:13.107Z,42.85
2022-12-17T05:11:58.631Z,44.55
2022-12-17T05:14:45.761Z,44.70
2022-12-17T05:17:31.572Z,44.30
2022-12-17T05:20:17.270Z,44.20
2022-12-17T05:23:03.030Z,44.72
2022-12-17T05:25:48.787Z,44.80
2022-12-17T05:28:34.693Z,43.58
2022-12-17T05:31:21.635Z,42.38
2022-12-17T05:34:07.582Z,41.47
2022-12-17T05:36:58.585Z,40.90
2022-12-17T05:39:44.671Z,39.38
2022-12-17T05:42:30.274Z,41.38
2022-12-17T05:45:15.731Z,41.58
2022-12-17T05:47:59.258Z,41.72
2022-12-17T05:50:47.837Z,43.45
2022-12-17T05:53:34.158Z,41.95
2022-12-17T05:56:20.182Z,43.15
2022-12-17T05:59:06.259Z,43.88
2022-12-17T06:01:51.978Z,42.55
2022-12-17T06:04:39.474Z,45.58
2022-12-17T06:07:25.572Z,46.80
2022-12-17T06:10:13.806Z,46.15
2022-12-17T06:12:59.164Z,45.03
2022-12-17T06:15:44.937Z,46.00
2022-12-17T06:18:30.493Z,45.88
2022-12-17T06:21:17.645Z,45.95
2022-12-17T06:24:03.233Z,44.47
2022-12-17T06:26:48.996Z,44.20
2022-12-17T06:29:33.837Z,43.00
2022-12-17T06:32:19.570Z,42.08
2022-12-17T06:35:05.496Z,40.85
2022-12-17T06:37:52.504Z,42.35
2022-12-17T06:40:38.510Z,41.75
2022-12-17T06:43:24.069Z,42.95
2022-12-17T06:46:10.759Z,43.33
2022-12-17T06:48:57.275Z,41.97
2022-12-17T06:51:42.494Z,43.75
2022-12-17T06:54:29.845Z,43.13
2022-12-17T06:57:15.630Z,43.72
2022-12-17T07:00:01.433Z,44.97
2022-12-17T07:02:46.889Z,44.20
2022-12-17T07:05:33.339Z,41.80
2022-12-17T07:08:19.524Z,48.17
2022-12-17T07:11:06.784Z,51.08
2022-12-17T07:13:52.385Z,48.78
2022-12-17T07:16:38.299Z,46.22
2022-12-17T07:19:35.127Z,46.30
2022-12-17T07:22:21.300Z,45.58
2022-12-17T07:25:06.779Z,44.88
2022-12-17T07:27:54.208Z,45.00
2022-12-17T07:30:40.017Z,44.47
2022-12-17T07:33:29.072Z,42.70
2022-12-17T07:36:14.990Z,42.30
2022-12-17T07:39:00.927Z,43.00
2022-12-17T07:41:46.335Z,44.33
2022-12-17T07:44:34.064Z,42.40
2022-12-17T07:47:20.039Z,42.58
2022-12-17T07:50:05.667Z,41.75
2022-12-17T07:52:51.612Z,40.00
2022-12-17T07:55:37.423Z,42.90
2022-12-17T07:58:26.234Z,42.67
2022-12-17T08:01:13.312Z,41.58
2022-12-17T08:03:58.981Z,42.10
2022-12-17T08:06:44.562Z,40.15
2022-12-17T08:09:29.843Z,40.63
2022-12-17T08:12:15.937Z,38.70
2022-12-17T08:15:01.511Z,37.13
2022-12-17T08:17:48.464Z,35.75
2022-12-17T08:20:34.549Z,36.30
2022-12-17T08:23:21.333Z,35.92
2022-12-17T08:26:06.899Z,36.15
2022-12-17T08:28:53.215Z,36.78
2022-12-17T08:31:39.602Z,33.95
2022-12-17T08:34:27.338Z,33.30
2022-12-17T08:37:12.592Z,34.10
2022-12-17T08:39:58.448Z,32.00
2022-12-17T08:42:44.712Z,32.35
2022-12-17T08:45:30.506Z,31.50
2022-12-17T08:48:22.100Z,32.30
2022-12-17T08:51:09.096Z,32.88
2022-12-17T08:53:55.090Z,34.10
2022-12-17T08:56:40.814Z,34.80
2022-12-17T08:59:26.907Z,34.42
2022-12-17T09:02:12.736Z,33.72
2022-12-17T09:04:58.471Z,32.90
2022-12-17T09:07:46.022Z,33.78
2022-12-17T09:10:45.984Z,33.50
2022-12-17T09:13:31.721Z,33.08
2022-12-17T09:16:17.629Z,34.92
2022-12-17T09:19:03.514Z,37.17
2022-12-17T09:21:50.187Z,34.35
2022-12-17T09:24:49.151Z,34.25
2022-12-17T09:27:34.910Z,35.10
2022-12-17T09:30:20.435Z,33.75
2022-12-17T09:33:06.436Z,34.10
2022-12-17T09:35:51.985Z,32.38
2022-12-17T09:38:37.707Z,33.75
2022-12-17T09:41:34.985Z,33.55
2022-12-17T09:44:25.492Z,32.65
2022-12-17T09:47:17.773Z,33.25
2022-12-17T09:50:03.288Z,32.63
2022-12-17T09:52:53.787Z,32.40
2022-12-17T09:55:43.051Z,33.05
2022-12-17T09:58:38.595Z,34.20
2022-12-17T10:01:25.508Z,34.08
2022-12-17T10:04:11.594Z,34.03
2022-12-17T10:06:56.996Z,35.60
2022-12-17T10:09:45.914Z,34.08
2022-12-17T10:12:34.102Z,34.95
2022-12-17T10:15:22.109Z,34.75
2022-12-17T10:18:07.868Z,34.83
2022-12-17T10:20:57.915Z,34.78
2022-12-17T10:23:45.402Z,34.58
2022-12-17T10:26:36.173Z,34.90
2022-12-17T10:29:28.574Z,35.13
2022-12-17T10:32:19.046Z,33.55
2022-12-17T10:35:08.183Z,33.70
2022-12-17T10:37:54.821Z,33.03
2022-12-17T10:40:44.387Z,33.88
2022-12-17T10:43:47.023Z,32.88
2022-12-17T10:46:42.457Z,32.28
2022-12-17T10:49:35.362Z,32.47
2022-12-17T10:52:25.570Z,33.88
2022-12-17T10:55:18.077Z,33.63
2022-12-17T10:58:05.785Z,33.13
2022-12-17T11:00:54.637Z,33.03
2022-12-17T11:03:56.650Z,34.03
2022-12-17T11:06:48.233Z,34.97
2022-12-17T11:09:50.158Z,34.42
2022-12-17T11:12:38.368Z,33.67
2022-12-17T11:15:34.455Z,35.00
2022-12-17T11:18:20.978Z,35.05
2022-12-17T11:21:09.765Z,34.17
2022-12-17T11:24:02.915Z,35.53
2022-12-17T11:26:52.885Z,35.35
2022-12-17T11:29:38.663Z,35.30
2022-12-17T11:32:38.817Z,35.90
2022-12-17T11:35:32.729Z,35.95
2022-12-17T11:38:26.239Z,35.38
2022-12-17T11:41:19.010Z,36.42
2022-12-17T11:44:14.186Z,35.72
2022-12-17T11:47:08.800Z,33.65
2022-12-17T11:50:09.577Z,35.72
2022-12-17T11:53:01.500Z,35.83
2022-12-17T11:55:56.833Z,34.70
2022-12-17T11:58:53.455Z,36.50
2022-12-17T12:01:49.326Z,36.20
2022-12-17T12:04:50.096Z,35.78
2022-12-17T12:07:42.283Z,36.58
2022-12-17T12:10:32.703Z,36.65
2022-12-17T12:13:29.099Z,37.97
2022-12-17T12:16:26.977Z,38.10
2022-12-17T12:19:25.210Z,37.55
2022-12-17T12:22:18.786Z,37.95
2022-12-17T12:25:25.201Z,36.40
2022-12-17T12:28:25.057Z,35.67
2022-12-17T12:31:21.574Z,37.17
2022-12-17T12:34:12.510Z,37.50
2022-12-17T12:37:01.299Z,37.63
2022-12-17T12:39:53.205Z,38.00
2022-12-17T12:42:44.903Z,36.78
2022-12-17T12:45:53.455Z,37.28
2022-12-17T12:48:52.922Z,39.08
2022-12-17T12:51:43.345Z,38.17
2022-12-17T12:54:46.011Z,37.33
2022-12-17T12:57:46.252Z,38.25
2022-12-17T13:00:56.958Z,39.67
2022-12-17T13:03:49.486Z,41.15
2022-12-17T13:06:46.259Z,44.35
2022-12-17T13:09:30.709Z,42.80
2022-12-17T13:12:27.506Z,43.03
2022-12-17T13:15:02.392Z,41.72
2022-12-17T13:17:37.886Z,41.78
2022-12-17T13:20:30.134Z,43.13
2022-12-17T13:23:19.010Z,42.80
2022-12-17T13:25:47.672Z,41.38
2022-12-17T13:28:30.839Z,42.22
2022-12-17T13:31:04.212Z,43.63
2022-12-17T13:33:41.132Z,43.63
2022-12-17T13:36:23.513Z,41.58
2022-12-17T13:38:58.316Z,42.08
2022-12-17T13:41:31.396Z,41.10
2022-12-17T13:44:03.411Z,41.78
2022-12-17T13:46:36.970Z,41.72
2022-12-17T13:51:36.960Z,40.80
2022-12-17T13:54:06.469Z,40.80
2022-12-17T13:56:36.793Z,42.83
2022-12-17T13:59:09.576Z,40.70
2022-12-17T14:01:46.982Z,39.75
2022-12-17T14:04:23.081Z,40.50
2022-12-17T14:06:54.363Z,40.38
2022-12-17T14:09:24.237Z,40.78
2022-12-17T14:12:10.475Z,41.28
2022-12-17T14:14:41.908Z,40.13
2022-12-17T14:17:18.624Z,39.60
2022-12-17T14:19:47.538Z,39.88
2022-12-17T14:22:31.399Z,39.10
2022-12-17T14:27:33.194Z,38.42
2022-12-17T14:30:01.615Z,39.83
2022-12-17T14:32:35.580Z,40.95
2022-12-17T14:35:04.276Z,40.42
2022-12-17T14:37:33.966Z,41.03
2022-12-17T14:40:05.316Z,42.00
2022-12-17T14:42:37.821Z,40.40
2022-12-17T14:45:09.249Z,41.43
2022-12-17T14:47:38.935Z,45.88
2022-12-17T14:50:25.489Z,45.28
2022-12-17T14:52:57.855Z,44.35
2022-12-17T14:55:32.374Z,44.05
2022-12-17T14:58:18.405Z,44.25
2022-12-17T15:00:49.440Z,42.70
2022-12-17T15:03:25.757Z,44.08
2022-12-17T15:05:58.106Z,40.60
2022-12-17T15:08:29.880Z,43.10
2022-12-17T15:10:58.023Z,43.30
2022-12-17T15:13:27.665Z,43.97
2022-12-17T15:15:55.867Z,43.28
2022-12-17T15:18:25.799Z,43.95
2022-12-17T15:20:54.236Z,43.60
2022-12-17T15:23:24.681Z,43.47
2022-12-17T15:25:55.118Z,45.33
2022-12-17T15:28:23.515Z,45.50
2022-12-17T15:30:51.937Z,45.40
2022-12-17T15:33:20.572Z,45.40
2022-12-17T15:35:49.032Z,46.88
2022-12-17T15:38:17.352Z,45.67
2022-12-17T15:40:45.710Z,44.55
2022-12-17T15:43:15.987Z,45.80
2022-12-17T15:45:45.969Z,45.80
2022-12-17T15:48:16.504Z,47.53
2022-12-17T15:50:44.788Z,50.45
2022-12-17T15:53:13.307Z,48.15
2022-12-17T15:55:42.255Z,48.13
2022-12-17T15:58:11.708Z,49.63
2022-12-17T16:00:41.305Z,50.08
2022-12-17T16:03:10.198Z,53.25
2022-12-17T16:05:38.639Z,59.25
2022-12-17T16:08:07.838Z,60.88
2022-12-17T16:10:36.705Z,67.30
2022-12-17T16:13:05.244Z,58.85
2022-12-17T16:15:33.457Z,65.63
2022-12-17T16:18:03.494Z,65.10
2022-12-17T16:20:31.635Z,66.40
2022-12-17T16:23:01.186Z,68.30
2022-12-17T16:25:29.706Z,65.63
2022-12-17T16:27:57.901Z,60.75
2022-12-17T16:30:26.169Z,59.55
2022-12-17T16:32:54.724Z,55.10
2022-12-17T16:35:24.986Z,58.08
2022-12-17T16:37:53.285Z,55.78
2022-12-17T16:40:22.085Z,56.63
2022-12-17T16:42:50.283Z,54.13
2022-12-17T16:45:18.683Z,53.35
2022-12-17T16:47:47.672Z,54.65
2022-12-17T16:50:16.926Z,54.45
2022-12-17T16:52:47.699Z,53.92
2022-12-17T16:55:16.376Z,55.72
2022-12-17T16:57:44.594Z,53.70
2022-12-17T17:00:13.683Z,55.58
2022-12-17T17:02:42.476Z,55.05
2022-12-17T17:05:10.765Z,57.42
2022-12-17T17:07:39.087Z,54.88
2022-12-17T17:10:09.712Z,55.92
2022-12-17T17:12:38.302Z,56.53
2022-12-17T17:15:07.689Z,58.45
2022-12-17T17:17:54.112Z,57.22
2022-12-17T17:20:24.585Z,58.10
2022-12-17T17:22:56.951Z,63.33
2022-12-17T17:25:43.971Z,68.97
2022-12-17T17:28:15.743Z,65.00
2022-12-17T17:30:44.043Z,64.60
2022-12-17T17:33:12.305Z,65.90
2022-12-17T17:35:40.821Z,65.18
2022-12-17T17:38:09.120Z,60.80
2022-12-17T17:40:38.747Z,59.85
2022-12-17T17:43:07.079Z,63.65
2022-12-17T17:45:35.341Z,63.00
2022-12-17T17:48:03.558Z,66.60
2022-12-17T17:50:32.111Z,71.05
2022-12-17T17:53:00.447Z,62.95
2022-12-17T17:55:28.727Z,62.67
2022-12-17T17:57:58.772Z,61.63
2022-12-17T18:00:27.144Z,63.90
2022-12-17T18:02:55.658Z,64.97
2022-12-17T18:05:24.189Z,65.47
2022-12-17T18:07:52.504Z,67.53
2022-12-17T18:10:20.747Z,70.85
2022-12-17T18:13:06.588Z,69.38
2022-12-17T18:15:36.337Z,62.38
2022-12-17T18:18:06.386Z,61.15
2022-12-17T18:20:38.332Z,63.15
2022-12-17T18:23:06.994Z,61.80
2022-12-17T18:25:37.783Z,64.40
2022-12-17T18:28:06.361Z,62.67
2022-12-17T18:30:39.507Z,64.85
2022-12-17T18:33:07.832Z,66.40
2022-12-17T18:35:36.061Z,62.63
2022-12-17T18:38:04.324Z,61.15
2022-12-17T18:40:33.661Z,58.72
2022-12-17T18:43:19.937Z,57.28
2022-12-17T18:45:50.215Z,59.80
2022-12-17T18:48:18.577Z,59.25
2022-12-17T18:50:46.924Z,54.67
2022-12-17T18:53:15.348Z,51.90
2022-12-17T18:55:43.713Z,54.28
2022-12-17T18:58:11.972Z,52.38
2022-12-17T19:00:40.313Z,54.33
2022-12-17T19:03:10.335Z,52.63
2022-12-17T19:05:45.129Z,53.78
2022-12-17T19:08:14.959Z,56.88
2022-12-17T19:10:43.159Z,55.22
2022-12-17T19:13:11.300Z,53.22
2022-12-17T19:15:39.926Z,52.00
2022-12-17T19:18:09.573Z,53.42
2022-12-17T19:20:37.804Z,54.10
2022-12-17T19:23:06.514Z,53.20
2022-12-17T19:25:35.438Z,62.80
2022-12-17T19:28:04.110Z,63.22
2022-12-17T19:30:32.433Z,65.60
2022-12-17T19:33:00.680Z,61.55
2022-12-17T19:35:30.312Z,71.40
2022-12-17T19:37:58.851Z,71.95
2022-12-17T19:40:27.006Z,70.60
2022-12-17T19:42:56.295Z,67.22
2022-12-17T19:45:24.954Z,73.70
2022-12-17T19:47:53.239Z,85.70
2022-12-17T19:50:21.551Z,85.68
2022-12-17T19:52:51.366Z,70.28
2022-12-17T19:55:21.312Z,62.10
2022-12-17T19:57:49.477Z,55.58
2022-12-17T20:00:18.431Z,57.80
2022-12-17T20:02:46.934Z,56.60
2022-12-17T20:05:15.365Z,60.17
2022-12-17T20:07:43.915Z,59.42
2022-12-17T20:10:13.683Z,62.92
2022-12-17T20:12:42.009Z,60.50
2022-12-17T20:15:10.974Z,60.53
2022-12-17T20:17:39.266Z,60.67
2022-12-17T20:20:08.618Z,61.00
2022-12-17T20:22:36.957Z,58.20
2022-12-17T20:25:09.377Z,57.45
2022-12-17T20:27:39.489Z,56.58
2022-12-17T20:30:08.721Z,58.75
2022-12-17T20:32:37.541Z,60.00
2022-12-17T20:35:06.844Z,60.78
2022-12-17T20:37:35.061Z,63.10
2022-12-17T20:40:03.273Z,59.33
2022-12-17T20:42:31.947Z,66.68
2022-12-17T20:45:01.527Z,62.55
2022-12-17T20:47:30.628Z,63.20
2022-12-17T20:49:58.867Z,58.75
2022-12-17T20:52:27.112Z,52.67
2022-12-17T20:54:55.651Z,56.38
2022-12-17T20:57:24.232Z,54.05
2022-12-17T20:59:52.380Z,51.00
2022-12-17T21:02:22.319Z,52.42
2022-12-17T21:04:50.724Z,51.03
2022-12-17T21:07:18.944Z,53.47
2022-12-17T21:09:47.147Z,53.63
2022-12-17T21:12:15.642Z,54.50
2022-12-17T21:14:43.798Z,51.05
2022-12-17T21:17:14.388Z,55.42
2022-12-17T21:19:44.421Z,52.42
2022-12-17T21:22:12.830Z,52.03
2022-12-17T21:24:41.087Z,52.03
2022-12-17T21:27:14.741Z,54.72
2022-12-17T21:29:43.574Z,56.33
2022-12-17T21:32:12.132Z,55.63
2022-12-17T21:34:40.714Z,53.78
2022-12-17T21:37:11.348Z,56.20
2022-12-17T21:39:39.781Z,55.92
2022-12-17T21:42:25.510Z,57.25
2022-12-17T21:44:53.717Z,55.25
2022-12-17T21:47:22.592Z,53.13
2022-12-17T21:49:50.821Z,53.38
2022-12-17T21:52:20.520Z,51.40
2022-12-17T21:54:48.871Z,56.00
2022-12-17T21:57:17.143Z,56.03
2022-12-17T21:59:45.329Z,54.95
2022-12-17T22:02:14.047Z,55.95
2022-12-17T22:04:42.422Z,51.95
2022-12-17T22:07:17.300Z,49.75
2022-12-17T22:09:59.730Z,50.08
2022-12-17T22:12:59.927Z,53.58
2022-12-17T22:15:36.275Z,50.72
2022-12-17T22:18:14.860Z,51.65
2022-12-17T22:20:43.453Z,50.47
2022-12-17T22:23:11.704Z,50.50
2022-12-17T22:25:42.831Z,48.58
2022-12-17T22:28:12.345Z,48.60
2022-12-17T22:30:58.025Z,47.80
2022-12-17T22:33:39.711Z,50.70
2022-12-17T22:37:32.462Z,50.28
2022-12-17T22:43:54.523Z,47.35
2022-12-17T22:44:38.630Z,47.15
2022-12-17T22:45:09.977Z,46.45
2022-12-17T22:47:39.730Z,47.35
2022-12-17T22:50:08.607Z,45.75
2022-12-17T22:52:37.593Z,47.28
2022-12-17T22:55:07.326Z,45.15
2022-12-17T22:57:38.401Z,45.25
2022-12-17T23:00:12.859Z,43.17
2022-12-17T23:02:41.421Z,42.40
2022-12-17T23:05:10.169Z,43.08
2022-12-17T23:07:38.579Z,42.90
2022-12-17T23:10:08.116Z,41.22
2022-12-17T23:12:54.165Z,43.42
2022-12-17T23:15:28.331Z,45.97
2022-12-17T23:17:59.056Z,44.97
2022-12-17T23:20:28.754Z,45.97
2022-12-17T23:22:58.020Z,45.45
2022-12-17T23:25:26.919Z,44.53
2022-12-17T23:27:56.735Z,45.58
2022-12-17T23:30:25.004Z,43.97
2022-12-17T23:32:53.320Z,42.50
2022-12-17T23:35:21.916Z,44.17
2022-12-17T23:37:50.549Z,43.53
2022-12-17T23:40:18.945Z,42.97
2022-12-17T23:42:47.385Z,41.70
2022-12-17T23:45:17.006Z,43.65
2022-12-17T23:47:45.266Z,40.15
2022-12-17T23:50:13.584Z,40.53
2022-12-17T23:52:41.932Z,39.10
2022-12-17T23:55:11.674Z,40.58
2022-12-17T23:57:40.503Z,40.40
